Time;durP1;ratioP1;P1;durP2;ratioP2;P2;SDS_P1;SDS_P2;PMS_P1;PMS_P2;Temp;Humidity;BMP_temperature;BMP_pressure;BME280_temperature;BME280_humidity;BME280_pressure;Samples;Min_cycle;Max_cycle;Signal;HPM_P1;HPM_P2
2022/11/20 00:01:11;;;;;;;37.30;23.20;;;;;;;13.43;93.02;99125.09;5030885;28;20086;-37
2022/11/20 00:03:36;;;;;;;39.38;25.48;;;;;;;13.45;95.36;99115.78;5030712;28;20032;-36
2022/11/20 00:06:03;;;;;;;37.95;24.80;;;;;;;13.72;94.67;99106.41;5031141;28;20052;-37
2022/11/20 00:08:28;;;;;;;40.35;26.17;;;;;;;13.64;94.45;99124.44;5030713;28;20049;-37
2022/11/20 00:10:54;;;;;;;36.58;24.15;;;;;;;13.32;94.26;99115.25;5030414;28;20465;-37
2022/11/20 00:13:19;;;;;;;39.40;25.40;;;;;;;13.85;93.74;99122.94;5030234;28;20038;-37
2022/11/20 00:15:45;;;;;;;35.20;23.77;;;;;;;13.73;93.31;99114.19;5030469;28;20029;-37
2022/11/20 00:18:10;;;;;;;38.97;24.30;;;;;;;13.53;93.59;99108.44;5030305;28;20025;-37
2022/11/20 00:20:35;;;;;;;38.40;23.13;;;;;;;13.33;93.41;99116.84;5030608;28;20017;-37
2022/11/20 00:23:01;;;;;;;36.70;26.00;;;;;;;13.76;93.68;99118.22;5030405;28;20494;-37
2022/11/20 00:25:26;;;;;;;39.53;24.35;;;;;;;13.68;93.29;99104.19;5030241;28;20033;-37
2022/11/20 00:27:52;;;;;;;36.78;24.33;;;;;;;13.56;93.40;99098.09;5030558;28;20101;-36
2022/11/20 00:30:17;;;;;;;39.85;24.77;;;;;;;13.33;94.54;99112.34;5030439;28;20393;-37
2022/11/20 00:32:43;;;;;;;38.00;23.95;;;;;;;13.91;93.57;99107.00;5030366;28;20025;-37
2022/11/20 00:35:08;;;;;;;37.90;24.75;;;;;;;13.55;94.43;99117.84;5030148;28;20485;-37
2022/11/20 00:37:34;;;;;;;35.22;22.77;;;;;;;13.38;92.89;99107.09;5030279;28;20040;-36
2022/11/20 00:40:02;;;;;;;39.30;25.25;;;;;;;13.34;96.25;99119.31;5030512;28;20038;-37
2022/11/20 00:42:27;;;;;;;42.45;25.30;;;;;;;13.95;94.08;99125.00;5030376;28;20642;-37
2022/11/20 00:44:53;;;;;;;37.15;24.00;;;;;;;13.67;91.65;99109.81;5030268;28;20032;-37
2022/11/20 00:47:18;;;;;;;35.92;23.52;;;;;;;13.30;93.58;99092.25;5029809;28;20032;-37
2022/11/20 00:49:44;;;;;;;37.80;24.75;;;;;;;13.84;93.25;99109.81;5030775;28;20033;-42
2022/11/20 00:52:09;;;;;;;37.70;23.55;;;;;;;13.79;92.92;99104.41;5030720;28;20025;-38
2022/11/20 00:54:35;;;;;;;35.63;22.88;;;;;;;13.42;92.55;99116.28;5029877;28;20017;-39
2022/11/20 00:57:00;;;;;;;41.28;25.02;;;;;;;13.35;95.26;99122.81;5030549;28;20117;-40
2022/11/20 00:59:25;;;;;;;38.72;25.10;;;;;;;14.04;92.85;99118.19;5030663;28;20109;-38
2022/11/20 01:01:51;;;;;;;40.15;24.58;;;;;;;13.81;93.00;99118.34;5030576;28;20041;-37
2022/11/20 01:04:16;;;;;;;40.17;24.48;;;;;;;13.56;94.94;99122.16;5029685;28;20035;-37
2022/11/20 01:06:42;;;;;;;37.80;24.27;;;;;;;13.47;95.62;99119.03;5030188;28;20041;-38
2022/11/20 01:09:10;;;;;;;40.00;25.38;;;;;;;13.43;95.14;99106.38;5030046;28;20068;-37
2022/11/20 01:11:38;;;;;;;36.80;23.90;;;;;;;13.28;96.39;99115.69;5030111;28;20116;-38
2022/11/20 01:14:06;;;;;;;38.75;24.23;;;;;;;13.27;96.41;99114.06;5029903;28;20267;-38
2022/11/20 01:16:36;;;;;;;40.47;24.35;;;;;;;13.20;96.27;99096.56;5029978;28;20025;-37
2022/11/20 01:19:04;;;;;;;36.30;23.40;;;;;;;13.28;96.39;99093.50;5030144;28;20033;-37
2022/11/20 01:21:33;;;;;;;40.95;25.88;;;;;;;13.48;95.50;99098.47;5029861;28;20047;-37
2022/11/20 01:23:58;;;;;;;39.03;24.80;;;;;;;13.23;96.74;99102.25;5029711;28;20052;-37
2022/11/20 01:26:30;;;;;;;40.75;25.70;;;;;;;13.36;96.15;99100.38;5029829;28;20025;-37
2022/11/20 01:28:56;;;;;;;38.10;24.27;;;;;;;13.28;96.03;99090.84;5029999;28;20105;-37
2022/11/20 01:31:24;;;;;;;40.25;24.50;;;;;;;13.30;96.21;99086.09;5033414;28;20021;-37
2022/11/20 01:33:52;;;;;;;45.90;26.20;;;;;;;13.43;95.24;99098.38;5033190;28;20568;-37
2022/11/20 01:36:20;;;;;;;40.97;25.63;;;;;;;13.25;95.67;99069.91;5033411;28;20063;-37
2022/11/20 01:38:46;;;;;;;39.75;24.90;;;;;;;13.10;96.68;99083.81;5033437;28;20026;-38
2022/11/20 01:43:20;;;;;;;39.33;23.70;;;;;;;13.22;95.81;99081.09;5033349;28;20017;-38
2022/11/20 01:43:59;;;;;;;42.13;26.23;;;;;;;13.20;96.42;99081.34;5033140;28;20031;-37
2022/11/20 01:46:24;;;;;;;40.40;24.77;;;;;;;13.19;95.81;99066.34;5032958;28;20128;-38
2022/11/20 01:49:07;;;;;;;40.28;24.95;;;;;;;13.11;96.44;99064.84;5033354;28;20065;-37
2022/11/20 01:51:39;;;;;;;40.70;23.83;;;;;;;13.27;96.31;99057.97;5033286;28;20034;-37
2022/11/20 01:54:10;;;;;;;39.67;24.33;;;;;;;13.02;97.16;99058.28;5033392;28;20025;-37
2022/11/20 01:56:41;;;;;;;41.08;24.48;;;;;;;13.12;98.15;99057.66;5033225;28;20446;-37
2022/11/20 01:59:10;;;;;;;37.70;24.38;;;;;;;13.25;96.34;99064.56;5033268;28;20504;-37
2022/11/20 02:01:36;;;;;;;38.45;25.10;;;;;;;13.11;97.13;99056.84;5033083;28;20056;-37
2022/11/20 02:04:02;;;;;;;37.50;24.13;;;;;;;13.20;96.26;99054.63;5032708;28;20513;-38
2022/11/20 02:06:43;;;;;;;38.90;25.65;;;;;;;13.55;94.60;99053.69;5032688;28;20359;-37
2022/11/20 02:09:09;;;;;;;37.78;24.48;;;;;;;13.42;94.75;99052.13;5032873;28;20057;-38
2022/11/20 02:11:34;;;;;;;38.05;25.00;;;;;;;13.26;94.88;99056.31;5032704;28;20580;-37
2022/11/20 02:14:00;;;;;;;42.85;24.20;;;;;;;13.27;94.44;99055.28;5032602;28;20106;-38
2022/11/20 02:16:30;;;;;;;41.53;24.90;;;;;;;13.25;94.57;99049.38;5032733;28;20422;-37
2022/11/20 02:18:59;;;;;;;40.40;25.08;;;;;;;13.14;94.90;99049.41;5033063;28;20040;-37
2022/11/20 02:21:36;;;;;;;38.83;24.38;;;;;;;13.15;95.45;99040.34;5032643;28;20327;-37
2022/11/20 02:24:07;;;;;;;40.05;24.40;;;;;;;13.03;95.98;99049.19;5032311;28;20053;-37
2022/11/20 02:26:40;;;;;;;36.85;24.98;;;;;;;13.00;95.84;99041.66;5032448;28;20065;-38
2022/11/20 02:29:06;;;;;;;38.83;24.48;;;;;;;12.90;97.14;99026.22;5032362;28;20454;-38
2022/11/20 02:31:37;;;;;;;38.40;23.75;;;;;;;13.04;95.51;99024.13;5031078;28;20746;-37
2022/11/20 02:34:03;;;;;;;36.30;23.73;;;;;;;13.07;95.64;99041.53;5032267;28;20041;-37
2022/11/20 02:36:32;;;;;;;37.70;24.98;;;;;;;12.96;96.03;99042.38;5031909;28;20033;-37
2022/11/20 02:38:58;;;;;;;42.60;24.83;;;;;;;12.99;96.19;99023.22;5032392;28;20029;-37
2022/11/20 02:41:31;;;;;;;38.58;25.30;;;;;;;13.10;95.82;99014.34;5031514;28;20760;-37
2022/11/20 02:43:57;;;;;;;39.33;24.85;;;;;;;13.27;95.41;99019.75;5030676;28;20056;-37
2022/11/20 02:46:22;;;;;;;40.10;25.67;;;;;;;13.13;95.21;99019.19;5032244;28;20041;-37
2022/11/20 02:48:47;;;;;;;44.33;25.77;;;;;;;13.06;95.78;99016.69;5032226;28;20087;-37
2022/11/20 02:51:13;;;;;;;35.85;23.17;;;;;;;13.16;95.89;99015.25;5032081;28;20477;-37
2022/11/20 02:53:38;;;;;;;37.42;22.88;;;;;;;13.07;97.03;99037.00;5031986;28;20083;-37
2022/11/20 02:56:04;;;;;;;35.55;23.80;;;;;;;13.24;96.16;99018.34;5032013;28;20037;-37
2022/11/20 02:58:29;;;;;;;33.88;22.25;;;;;;;12.94;97.04;99025.78;5032038;28;20025;-37
2022/11/20 03:00:55;;;;;;;35.50;22.52;;;;;;;12.91;97.61;99030.53;5031993;28;20206;-37
2022/11/20 03:03:20;;;;;;;38.47;23.63;;;;;;;12.90;98.42;99017.41;5032021;28;20216;-37
2022/11/20 03:05:45;;;;;;;34.50;22.30;;;;;;;13.05;99.26;99022.25;5032112;28;20033;-37
2022/11/20 03:08:11;;;;;;;34.50;21.98;;;;;;;13.09;97.60;99012.72;5031954;28;20100;-37
2022/11/20 03:10:36;;;;;;;32.22;20.83;;;;;;;13.18;97.74;99005.16;5031660;28;20351;-37
2022/11/20 03:13:02;;;;;;;33.47;21.30;;;;;;;13.34;96.90;99031.13;5031457;28;20026;-37
2022/11/20 03:15:27;;;;;;;34.97;21.95;;;;;;;13.36;95.80;99042.38;5031670;28;20030;-37
2022/11/20 03:17:54;;;;;;;37.42;22.13;;;;;;;13.33;94.92;99018.00;5031267;28;20028;-38
2022/11/20 03:20:20;;;;;;;36.78;22.10;;;;;;;13.07;97.01;99026.31;5031783;28;20029;-38
2022/11/20 03:22:45;;;;;;;36.08;22.08;;;;;;;13.22;96.71;99031.13;5031481;28;20052;-37
2022/11/20 03:25:11;;;;;;;32.35;20.58;;;;;;;13.29;95.51;99026.47;5031463;28;20121;-37
2022/11/20 03:27:36;;;;;;;31.33;20.20;;;;;;;13.30;95.65;99012.06;5031687;28;20026;-37
2022/11/20 03:30:02;;;;;;;34.10;20.92;;;;;;;13.33;96.05;98999.28;5031483;28;20029;-38
2022/11/20 03:32:28;;;;;;;34.72;20.67;;;;;;;13.33;95.08;99007.31;5031636;28;20204;-37
2022/11/20 03:34:53;;;;;;;32.03;19.75;;;;;;;13.34;94.88;99015.09;5031477;28;20116;-37
2022/11/20 03:37:19;;;;;;;31.83;19.70;;;;;;;13.42;94.75;99012.06;5031320;28;20091;-37
2022/11/20 03:39:44;;;;;;;32.78;20.33;;;;;;;13.31;96.33;99012.91;5031320;28;20041;-38
2022/11/20 03:44:54;;;;;;;26.48;18.27;;;;;;;13.62;93.86;99013.44;5031259;28;20125;-37
2022/11/20 03:47:19;;;;;;;33.17;20.08;;;;;;;13.68;95.24;99023.97;5031268;28;20487;-37
2022/11/20 03:49:44;;;;;;;27.25;16.92;;;;;;;13.63;95.65;99023.91;5031042;28;20026;-37
2022/11/20 03:52:10;;;;;;;26.75;16.50;;;;;;;13.44;97.06;99015.28;5030772;28;20033;-37
2022/11/20 03:54:35;;;;;;;21.52;15.07;;;;;;;13.56;97.65;99012.56;5030481;28;20021;-37
2022/11/20 03:57:01;;;;;;;26.80;15.70;;;;;;;13.68;96.58;99009.81;5031040;28;20532;-37
2022/11/20 03:59:26;;;;;;;26.75;17.17;;;;;;;13.58;96.09;99025.69;5031415;28;20105;-37
2022/11/20 04:01:51;;;;;;;24.15;16.00;;;;;;;13.49;98.09;99018.03;5031316;28;20052;-37
2022/11/20 04:04:17;;;;;;;30.90;16.27;;;;;;;13.51;97.80;99023.16;5031319;28;20065;-37
2022/11/20 04:06:42;;;;;;;24.02;14.57;;;;;;;13.63;97.49;99010.53;5031807;28;20025;-37
2022/11/20 04:09:08;;;;;;;25.80;14.75;;;;;;;13.59;97.53;99021.94;5031493;28;20108;-37
2022/11/20 04:11:36;;;;;;;22.27;13.65;;;;;;;13.66;97.39;99027.97;5031374;28;20385;-37
2022/11/20 04:14:05;;;;;;;20.90;12.80;;;;;;;13.44;98.65;99022.47;5031306;28;20033;-37
2022/11/20 04:16:34;;;;;;;23.13;11.93;;;;;;;13.59;98.72;99025.41;5031578;28;20052;-37
2022/11/20 04:19:01;;;;;;;20.40;11.05;;;;;;;13.46;100.00;99017.69;5031272;28;20037;-37
2022/11/20 04:21:27;;;;;;;20.85;11.52;;;;;;;13.66;99.20;99054.69;5031234;28;20033;-37
2022/11/20 04:23:54;;;;;;;19.02;11.27;;;;;;;13.76;97.77;99033.47;5030813;28;20504;-37
2022/11/20 04:26:21;;;;;;;19.73;11.50;;;;;;;13.94;96.58;99028.97;5031029;28;20130;-37
2022/11/20 04:28:46;;;;;;;18.02;10.48;;;;;;;13.62;98.29;99038.31;5031282;28;20021;-37
2022/11/20 04:31:15;;;;;;;20.90;10.32;;;;;;;13.75;97.17;99041.75;5031333;28;20047;-37
2022/11/20 04:33:41;;;;;;;23.25;12.55;;;;;;;13.91;96.04;99029.44;5031400;28;20037;-37
2022/11/20 04:36:12;;;;;;;24.20;10.77;;;;;;;13.74;97.75;99029.41;5030785;28;20024;-37
2022/11/20 04:38:37;;;;;;;19.40;10.23;;;;;;;13.75;97.94;99023.03;5031225;28;20311;-37
2022/11/20 04:41:06;;;;;;;17.48;10.18;;;;;;;13.59;99.72;99029.97;5030998;28;20448;-38
2022/11/20 04:43:32;;;;;;;18.30;10.10;;;;;;;13.67;100.00;99024.25;5031142;28;20194;-37
2022/11/20 04:45:59;;;;;;;20.63;9.43;;;;;;;13.92;100.00;99036.41;5031211;28;20033;-38
2022/11/20 04:48:29;;;;;;;16.33;8.77;;;;;;;14.10;100.00;99030.81;5030922;28;20025;-38
2022/11/20 04:50:54;;;;;;;;;;;;;;;14.09;98.10;99037.25;5031105;28;20415;-37
2022/11/20 04:53:21;;;;;;;17.33;8.05;;;;;;;14.01;98.24;99038.44;5030810;28;19913;-38
2022/11/20 04:55:47;;;;;;;17.42;7.30;;;;;;;14.03;99.67;99024.81;5031137;28;20108;-37
2022/11/20 04:58:13;;;;;;;14.68;7.55;;;;;;;13.94;100.00;99035.13;5030674;28;20505;-37
2022/11/20 05:00:39;;;;;;;10.52;6.70;;;;;;;13.69;99.55;99030.97;5030461;28;20031;-37
2022/11/20 05:03:04;;;;;;;19.88;7.20;;;;;;;13.92;99.63;99037.22;5030619;28;20032;-37
2022/11/20 05:05:30;;;;;;;13.95;7.40;;;;;;;14.13;98.55;99029.53;5033524;28;20053;-37
2022/11/20 05:07:57;;;;;;;16.20;7.78;;;;;;;14.05;99.17;99038.75;5035032;28;20370;-37
2022/11/20 05:10:23;;;;;;;13.55;7.07;;;;;;;14.14;98.32;99028.47;5034589;28;20080;-37
2022/11/20 05:12:49;;;;;;;14.30;7.40;;;;;;;14.10;99.03;99033.50;5034917;28;20111;-37
2022/11/20 05:15:14;;;;;;;17.08;8.88;;;;;;;14.12;97.92;99047.44;5034736;28;20029;-37
2022/11/20 05:17:39;;;;;;;14.20;8.48;;;;;;;14.15;96.40;99054.97;5034703;28;20036;-37
2022/11/20 05:20:05;;;;;;;17.73;9.63;;;;;;;13.88;97.24;99046.78;5034522;28;20029;-37
2022/11/20 05:22:31;;;;;;;15.68;8.30;;;;;;;14.06;96.90;99040.38;5034638;28;20041;-37
2022/11/20 05:24:56;;;;;;;15.48;8.63;;;;;;;13.97;97.82;99045.31;5033956;28;20401;-37
2022/11/20 05:27:22;;;;;;;14.70;8.40;;;;;;;13.78;98.13;99046.59;5034472;28;20028;-37
2022/11/20 05:29:47;;;;;;;18.83;9.63;;;;;;;13.78;99.35;99055.44;5034323;28;20473;-38
2022/11/20 05:32:12;;;;;;;20.08;9.82;;;;;;;13.87;98.59;99045.97;5034385;28;20028;-37
2022/11/20 05:34:38;;;;;;;18.80;10.32;;;;;;;13.99;98.71;99029.03;5034201;28;20048;-37
2022/11/20 05:37:03;;;;;;;20.35;8.73;;;;;;;14.16;98.92;99032.50;5034484;28;20036;-37
2022/11/20 05:39:29;;;;;;;13.80;8.60;;;;;;;14.28;97.41;99043.16;5034330;28;20036;-37
2022/11/20 05:44:38;;;;;;;16.77;8.63;;;;;;;14.28;95.77;99038.59;5034369;28;20128;-37
2022/11/20 05:47:04;;;;;;;12.15;6.40;;;;;;;14.38;96.65;99018.41;5034134;28;20075;-37
2022/11/20 05:49:29;;;;;;;15.45;7.20;;;;;;;14.47;95.08;99031.13;5034277;28;20025;-37
2022/11/20 05:51:55;;;;;;;18.92;7.68;;;;;;;14.66;93.73;99041.59;5034008;28;20026;-37
2022/11/20 05:54:20;;;;;;;19.08;8.85;;;;;;;14.17;95.34;99076.16;5034002;28;20029;-37
2022/11/20 05:56:45;;;;;;;17.20;8.80;;;;;;;14.03;96.46;99044.38;5034065;28;20116;-37
2022/11/20 05:59:11;;;;;;;21.50;8.65;;;;;;;13.91;96.92;99046.28;5033501;28;20022;-37
2022/11/20 06:01:36;;;;;;;16.38;9.30;;;;;;;14.09;97.39;99053.28;5033888;28;20026;-37
2022/11/20 06:04:02;;;;;;;15.43;8.75;;;;;;;14.03;96.07;99040.84;5033996;28;20025;-37
2022/11/20 06:06:27;;;;;;;15.35;8.50;;;;;;;14.30;95.02;99059.78;5033537;28;20116;-37
2022/11/20 06:08:54;;;;;;;15.48;8.73;;;;;;;14.22;94.10;99036.06;5033121;28;20063;-37
2022/11/20 06:11:20;;;;;;;19.30;10.32;;;;;;;14.08;96.51;99048.97;5032655;28;20099;-36
2022/11/20 06:13:46;;;;;;;16.80;8.48;;;;;;;14.15;94.72;99076.38;5032981;28;20022;-37
2022/11/20 06:16:13;;;;;;;17.25;8.88;;;;;;;14.03;95.51;99062.25;5031644;28;20767;-36
2022/11/20 06:18:39;;;;;;;15.10;7.90;;;;;;;14.02;96.44;99033.91;5033010;28;20030;-36
2022/11/20 06:21:07;;;;;;;14.13;7.78;;;;;;;14.18;96.47;99059.03;5032844;28;20021;-36
2022/11/20 06:23:35;;;;;;;13.82;6.22;;;;;;;14.30;95.60;99042.88;5032640;28;20126;-36
2022/11/20 06:26:05;;;;;;;12.80;6.40;;;;;;;14.17;95.91;99066.25;5033007;28;20430;-36
2022/11/20 06:28:30;;;;;;;13.95;5.53;;;;;;;14.55;94.38;99050.50;5032920;28;20033;-36
2022/11/20 06:30:56;;;;;;;12.13;5.97;;;;;;;14.42;94.58;99092.59;5032711;28;20408;-37
2022/11/20 06:33:22;;;;;;;15.30;6.25;;;;;;;14.55;94.07;99088.78;5032055;28;20025;-36
2022/11/20 06:35:47;;;;;;;12.75;6.88;;;;;;;14.62;94.09;99075.25;5031712;28;20026;-37
2022/11/20 06:38:12;;;;;;;12.98;6.40;;;;;;;14.53;93.88;99064.13;5032794;28;20029;-37
2022/11/20 06:40:43;;;;;;;9.80;5.88;;;;;;;14.69;93.17;99078.56;5031414;28;20414;-37
2022/11/20 06:43:09;;;;;;;14.85;7.38;;;;;;;14.81;92.24;99071.25;5032602;28;20381;-36
2022/11/20 06:45:35;;;;;;;13.85;6.85;;;;;;;14.74;92.90;99073.28;5032042;28;20040;-37
2022/11/20 06:48:01;;;;;;;14.95;6.88;;;;;;;14.53;93.60;99090.09;5032232;28;20025;-37
2022/11/20 06:50:26;;;;;;;17.77;7.60;;;;;;;14.63;93.40;99076.88;5032233;28;20025;-37
2022/11/20 06:52:52;;;;;;;37.53;15.05;;;;;;;14.75;93.34;99087.47;5032266;28;20025;-37
2022/11/20 06:55:17;;;;;;;15.60;8.13;;;;;;;14.90;91.67;99076.16;5031536;28;20066;-37
2022/11/20 06:57:42;;;;;;;13.07;8.10;;;;;;;14.68;93.32;99071.59;5032112;28;20025;-37
2022/11/20 07:00:08;;;;;;;15.63;8.05;;;;;;;14.85;92.75;99088.44;5032165;28;20029;-45
2022/11/20 07:02:34;;;;;;;16.58;9.50;;;;;;;14.89;92.08;99087.91;5031765;28;20025;-37
2022/11/20 07:04:59;;;;;;;19.08;11.48;;;;;;;14.83;92.11;99087.03;5031820;28;20028;-37
2022/11/20 07:07:25;;;;;;;22.60;11.95;;;;;;;15.02;91.44;99082.19;5032210;28;20086;-37
2022/11/20 07:09:50;;;;;;;16.63;10.45;;;;;;;15.24;90.36;99077.66;5031541;28;20532;-45
2022/11/20 07:12:16;;;;;;;19.02;10.27;;;;;;;15.40;89.12;99077.84;5031948;28;20029;-45
2022/11/20 07:14:41;;;;;;;19.42;10.63;;;;;;;15.39;88.99;99081.59;5030278;28;20040;-45
2022/11/20 07:17:07;;;;;;;20.20;10.40;;;;;;;15.28;89.45;99103.97;5031085;28;20025;-44
2022/11/20 07:19:32;;;;;;;17.23;9.48;;;;;;;15.22;89.65;99092.38;5030892;28;20452;-44
2022/11/20 07:21:57;;;;;;;16.90;10.57;;;;;;;15.42;89.08;99098.00;5031604;28;20405;-45
2022/11/20 07:24:23;;;;;;;22.88;12.85;;;;;;;15.30;88.42;99077.72;5029227;28;20061;-45
2022/11/20 07:26:51;;;;;;;22.40;11.88;;;;;;;15.19;89.78;99074.09;5030632;28;20041;-44
2022/11/20 07:29:16;;;;;;;18.40;10.70;;;;;;;15.21;89.35;99083.53;5031585;28;20029;-45
2022/11/20 07:31:43;;;;;;;32.33;20.70;;;;;;;15.24;89.48;99099.09;5029938;28;20056;-44
2022/11/20 07:34:09;;;;;;;37.33;23.50;;;;;;;15.15;88.67;99097.91;5030650;28;20070;-45
2022/11/20 07:36:34;;;;;;;18.55;11.07;;;;;;;15.47;88.17;99102.59;5031482;28;20043;-45
2022/11/20 07:39:00;;;;;;;17.35;9.80;;;;;;;15.61;87.45;99108.34;5026804;28;20041;-45
2022/11/20 07:41:25;;;;;;;20.75;10.43;;;;;;;15.74;86.04;99116.03;5025763;28;20071;-43
2022/11/20 07:43:51;;;;;;;16.83;9.82;;;;;;;15.70;86.87;99124.81;5028576;28;20083;-44
2022/11/20 07:46:16;;;;;;;19.20;10.18;;;;;;;16.03;85.74;99119.28;5029232;28;20508;-44
2022/11/20 07:48:42;;;;;;;31.83;17.65;;;;;;;15.87;86.34;99109.47;5029207;28;20099;-43
2022/11/20 07:51:07;;;;;;;18.95;9.93;;;;;;;15.77;85.25;99110.19;5029572;28;20087;-43
2022/11/20 07:53:33;;;;;;;20.52;9.90;;;;;;;15.95;85.13;99113.56;5029872;28;20692;-46
2022/11/20 07:56:02;;;;;;;18.42;10.65;;;;;;;15.91;85.63;99099.84;5029741;28;20390;-45
2022/11/20 07:58:32;;;;;;;;;;;;;;;16.06;85.04;99109.91;5030592;28;20052;-44
2022/11/20 08:01:02;;;;;;;27.35;12.55;;;;;;;16.09;85.06;99105.91;5031197;28;20278;-45
2022/11/20 08:03:27;;;;;;;;;;;;;;;16.03;85.40;99102.38;5031393;28;20040;-43
2022/11/20 08:05:52;;;;;;;23.23;13.52;;;;;;;15.88;85.84;99097.69;5030746;28;19908;-44
2022/11/20 08:08:18;;;;;;;15.70;8.77;;;;;;;15.97;85.38;99098.84;5031044;28;20108;-43
2022/11/20 08:10:43;;;;;;;17.70;9.50;;;;;;;15.79;86.52;99108.06;5030587;28;20025;-44
2022/11/20 08:15:52;;;;;;;14.98;7.40;;;;;;;16.00;85.02;99103.69;5030949;28;20036;-43
2022/11/20 08:18:18;;;;;;;10.70;6.60;;;;;;;15.91;84.93;99102.53;5030586;28;20029;-43
2022/11/20 08:20:44;;;;;;;11.55;6.90;;;;;;;15.87;85.34;99088.00;5030285;28;20129;-44
2022/11/20 08:23:10;;;;;;;20.50;9.30;;;;;;;16.00;84.10;99092.16;5030539;28;20500;-44
2022/11/20 08:25:37;;;;;;;23.80;12.40;;;;;;;16.10;83.72;99089.53;5030210;28;20049;-43
2022/11/20 08:28:05;;;;;;;23.67;12.70;;;;;;;16.37;84.59;99102.94;5030363;28;20112;-44
2022/11/20 08:30:31;;;;;;;19.48;11.00;;;;;;;16.65;82.77;99113.59;5030316;28;20212;-44
2022/11/20 08:33:04;;;;;;;18.85;9.98;;;;;;;16.72;83.23;99108.81;5030328;28;20087;-43
2022/11/20 08:35:37;;;;;;;15.93;8.90;;;;;;;17.12;81.46;99110.13;5023075;28;20025;-43
2022/11/20 08:38:04;;;;;;;13.95;8.30;;;;;;;17.11;80.07;99090.50;5030359;28;20493;-43
2022/11/20 08:40:30;;;;;;;16.10;8.60;;;;;;;17.08;80.35;99074.91;5029711;28;20197;-43
2022/11/20 08:42:56;;;;;;;18.42;8.70;;;;;;;17.30;78.76;99065.84;5030686;28;20041;-42
2022/11/20 08:45:22;;;;;;;14.38;7.80;;;;;;;17.83;79.34;99077.25;5030393;28;20117;-43
2022/11/20 08:47:47;;;;;;;15.25;7.78;;;;;;;18.41;76.09;99081.59;5030067;28;20095;-42
2022/11/20 08:50:14;;;;;;;11.70;6.25;;;;;;;18.95;71.57;99081.00;5030066;28;20033;-42
2022/11/20 08:52:41;;;;;;;12.32;5.47;;;;;;;18.82;71.10;99070.78;5030383;28;20025;-42
2022/11/20 08:55:08;;;;;;;12.70;7.10;;;;;;;19.09;70.35;99078.50;5030077;28;20083;-44
2022/11/20 08:57:34;;;;;;;10.75;5.63;;;;;;;19.33;70.58;99079.47;5029909;28;20048;-43
2022/11/20 09:00:00;;;;;;;15.43;6.63;;;;;;;19.72;67.83;99078.78;5029901;28;20093;-43
2022/11/20 09:02:25;;;;;;;10.85;5.57;;;;;;;19.57;67.90;99069.91;5029986;28;20100;-42
2022/11/20 09:04:51;;;;;;;10.43;5.10;;;;;;;19.68;66.92;99079.56;5030143;28;20037;-43
2022/11/20 09:07:16;;;;;;;9.57;4.90;;;;;;;20.05;66.08;99072.88;5030368;28;20025;-41
2022/11/20 09:09:42;;;;;;;9.82;4.78;;;;;;;19.70;65.89;99066.59;5029371;28;20029;-43
2022/11/20 09:12:07;;;;;;;11.45;4.90;;;;;;;19.70;66.68;99064.72;5030184;28;20031;-41
2022/11/20 09:14:33;;;;;;;12.25;6.10;;;;;;;20.01;65.51;99063.69;5029730;28;20095;-41
2022/11/20 09:16:59;;;;;;;10.57;5.05;;;;;;;20.94;64.18;99077.16;5029784;28;20590;-41
2022/11/20 09:19:24;;;;;;;12.63;5.28;;;;;;;21.14;61.49;99063.41;5029535;28;20116;-43
2022/11/20 09:21:51;;;;;;;16.45;6.45;;;;;;;21.12;59.71;99057.47;5029607;28;20048;-46
2022/11/20 09:24:16;;;;;;;14.32;7.40;;;;;;;20.99;60.16;99050.88;5029776;28;20072;-44
2022/11/20 09:26:42;;;;;;;15.82;10.07;;;;;;;20.79;61.33;99051.09;5029860;28;20029;-42
2022/11/20 09:29:07;;;;;;;20.75;12.57;;;;;;;20.66;63.56;99048.00;5028894;28;20033;-42
2022/11/20 09:31:33;;;;;;;18.90;10.25;;;;;;;21.14;61.55;99047.19;5027946;28;20032;-42
2022/11/20 09:33:58;;;;;;;15.10;8.52;;;;;;;21.37;59.95;99037.41;5028287;28;20030;-43
2022/11/20 09:36:23;;;;;;;17.83;8.63;;;;;;;21.05;61.75;99035.38;5029876;28;20029;-42
2022/11/20 09:38:49;;;;;;;13.98;7.00;;;;;;;21.56;61.23;99023.09;5029824;28;20030;-43
2022/11/20 09:42:09;;;;;;;10.77;5.90;;;;;;;21.82;59.75;99023.53;5029531;28;20025;-42
2022/11/20 09:44:50;;;;;;;9.63;4.65;;;;;;;21.53;60.76;99010.13;5007452;28;20537;-42
2022/11/20 09:47:40;;;;;;;11.73;5.38;;;;;;;22.03;60.38;99005.81;5027470;28;20715;-43
2022/11/20 09:50:40;;;;;;;10.18;4.50;;;;;;;22.11;59.44;98995.41;5029851;28;20026;-44
2022/11/20 09:53:27;;;;;;;7.05;4.10;;;;;;;22.06;60.31;98996.28;5033379;28;20117;-43
2022/11/20 09:55:52;;;;;;;8.52;3.88;;;;;;;22.44;58.61;98988.03;5033211;28;20122;-42
2022/11/20 09:58:29;;;;;;;11.45;3.97;;;;;;;22.30;58.74;98988.03;5033370;28;20515;-43
2022/11/20 10:00:59;;;;;;;8.55;3.55;;;;;;;22.87;56.56;98989.66;5033178;28;20025;-42
2022/11/20 10:03:41;;;;;;;8.02;4.10;;;;;;;22.89;56.14;98985.53;5033150;28;20021;-43
2022/11/20 10:06:15;;;;;;;6.43;3.67;;;;;;;23.07;55.78;98989.25;5033186;28;20032;-43
2022/11/20 10:09:13;;;;;;;11.57;4.03;;;;;;;23.88;54.75;99001.28;5032213;28;20033;-41
2022/11/20 10:11:59;;;;;;;11.18;4.40;;;;;;;23.58;55.33;99003.59;5002199;28;20087;-42
2022/11/20 10:14:48;;;;;;;13.30;6.43;;;;;;;22.89;56.76;98999.09;5012907;28;20125;-43
2022/11/20 10:17:27;;;;;;;6.68;3.80;;;;;;;23.26;55.10;98975.53;5012566;28;20025;-43
2022/11/20 10:20:17;;;;;;;13.80;4.00;;;;;;;22.24;58.02;98989.22;5015993;28;20060;-42
2022/11/20 10:23:21;;;;;;;11.70;3.90;;;;;;;22.47;58.59;98992.88;5031164;28;20060;-42
2022/11/20 10:25:53;;;;;;;11.05;3.88;;;;;;;23.12;55.50;98981.00;5013484;28;20441;-42
2022/11/20 10:28:24;;;;;;;8.82;3.80;;;;;;;22.70;57.01;98977.50;5013207;28;20026;-42
2022/11/20 10:30:59;;;;;;;11.20;4.22;;;;;;;22.88;57.87;98973.06;5013297;28;20029;-42
2022/11/20 10:33:26;;;;;;;12.07;4.10;;;;;;;23.38;56.04;98966.84;5012969;28;20462;-43
2022/11/20 10:36:03;;;;;;;9.63;4.13;;;;;;;23.11;57.08;98967.72;5030148;28;20079;-43
2022/11/20 10:38:56;;;;;;;11.05;4.13;;;;;;;23.27;56.83;98966.28;5032671;28;20083;-41
2022/11/20 10:41:29;;;;;;;9.15;4.68;;;;;;;22.21;58.98;98966.22;5032880;28;20104;-42
2022/11/20 10:44:05;;;;;;;8.60;4.43;;;;;;;21.77;60.72;98959.41;5032768;28;20150;-43
2022/11/20 10:46:42;;;;;;;8.95;4.47;;;;;;;21.99;60.20;98949.81;5032543;28;20032;-43
2022/11/20 10:49:19;;;;;;;11.95;4.78;;;;;;;21.98;60.04;98945.50;5032418;28;20029;-43
2022/11/20 10:52:06;;;;;;;15.48;4.95;;;;;;;21.83;61.48;98941.16;5031647;28;20025;-42
2022/11/20 10:54:37;;;;;;;15.02;5.18;;;;;;;22.81;58.62;98930.09;5029552;28;20032;-43
2022/11/20 10:57:19;;;;;;;16.77;9.38;;;;;;;22.46;59.39;98947.88;5031853;28;20401;-43
2022/11/20 10:59:55;;;;;;;17.30;6.40;;;;;;;22.24;61.08;98949.38;5031810;28;20029;-42
2022/11/20 11:02:32;;;;;;;18.98;5.93;;;;;;;22.99;58.82;98944.59;5031480;28;20097;-44
2022/11/20 11:05:04;;;;;;;14.07;5.70;;;;;;;22.77;57.84;98939.13;5030525;28;20040;-41
2022/11/20 11:07:39;;;;;;;13.93;5.63;;;;;;;22.66;58.78;98935.84;5029351;28;20044;-43
2022/11/20 11:10:21;;;;;;;13.80;6.82;;;;;;;22.61;58.35;98917.75;5030865;28;20021;-41
2022/11/20 11:12:50;;;;;;;17.45;6.80;;;;;;;22.31;59.47;98930.00;5027947;28;20403;-42
2022/11/20 11:15:39;;;;;;;16.67;6.03;;;;;;;21.91;62.10;98931.56;5028229;28;20144;-43
2022/11/20 11:18:08;;;;;;;30.50;11.93;;;;;;;22.42;59.77;98914.38;5029705;28;20072;-43
2022/11/20 11:20:34;;;;;;;17.48;7.10;;;;;;;21.62;61.71;98898.19;5031114;28;20052;-44
2022/11/20 11:23:00;;;;;;;19.10;8.25;;;;;;;21.32;63.57;98902.16;5030732;28;20455;-43
2022/11/20 11:25:34;;;;;;;19.42;8.25;;;;;;;21.93;61.49;98904.97;5031082;28;20382;-44
2022/11/20 11:28:21;;;;;;;16.40;7.78;;;;;;;21.79;61.62;98902.25;5030516;28;20029;-44
2022/11/20 11:30:49;;;;;;;13.27;6.60;;;;;;;21.82;61.54;98891.63;5028829;28;20049;-35
2022/11/20 11:33:22;;;;;;;17.10;7.25;;;;;;;22.12;59.90;98894.06;5030932;28;20029;-35
2022/11/20 11:35:58;;;;;;;16.85;6.20;;;;;;;21.80;60.05;98893.84;5031699;28;20030;-36